sensor_id;sensor_type;location;lat;lon;timestamp;P1;durP1;ratioP1;P2;durP2;ratioP2
54259;SDS011;40172;53.022;7.012;2023-05-13T00:00:35;10.52;;;7.10;;
54259;SDS011;40172;53.022;7.012;2023-05-13T00:03:01;12.95;;;7.28;;
54259;SDS011;40172;53.022;7.012;2023-05-13T00:05:27;12.35;;;7.35;;
54259;SDS011;40172;53.022;7.012;2023-05-13T00:07:52;11.90;;;7.43;;
54259;SDS011;40172;53.022;7.012;2023-05-13T00:10:18;13.48;;;7.53;;
54259;SDS011;40172;53.022;7.012;2023-05-13T00:12:44;10.60;;;7.18;;
54259;SDS011;40172;53.022;7.012;2023-05-13T00:15:10;10.70;;;7.25;;
54259;SDS011;40172;53.022;7.012;2023-05-13T00:17:35;10.02;;;7.22;;
54259;SDS011;40172;53.022;7.012;2023-05-13T00:20:01;13.40;;;7.70;;
54259;SDS011;40172;53.022;7.012;2023-05-13T00:22:27;14.40;;;7.63;;
54259;SDS011;40172;53.022;7.012;2023-05-13T00:24:53;13.73;;;7.57;;
54259;SDS011;40172;53.022;7.012;2023-05-13T00:27:19;12.13;;;7.95;;
54259;SDS011;40172;53.022;7.012;2023-05-13T00:29:44;11.00;;;7.60;;
54259;SDS011;40172;53.022;7.012;2023-05-13T00:32:10;14.70;;;8.23;;
54259;SDS011;40172;53.022;7.012;2023-05-13T00:34:35;12.70;;;8.05;;
54259;SDS011;40172;53.022;7.012;2023-05-13T00:37:01;13.38;;;7.95;;
54259;SDS011;40172;53.022;7.012;2023-05-13T00:39:27;12.63;;;8.60;;
54259;SDS011;40172;53.022;7.012;2023-05-13T00:41:52;12.00;;;7.80;;
54259;SDS011;40172;53.022;7.012;2023-05-13T00:44:18;15.10;;;7.97;;
54259;SDS011;40172;53.022;7.012;2023-05-13T00:46:44;12.63;;;7.47;;
54259;SDS011;40172;53.022;7.012;2023-05-13T00:49:10;12.65;;;8.13;;
54259;SDS011;40172;53.022;7.012;2023-05-13T00:51:35;10.35;;;8.15;;
54259;SDS011;40172;53.022;7.012;2023-05-13T00:54:01;15.70;;;8.50;;
54259;SDS011;40172;53.022;7.012;2023-05-13T00:56:26;12.68;;;8.00;;
54259;SDS011;40172;53.022;7.012;2023-05-13T00:58:52;9.55;;;7.70;;
54259;SDS011;40172;53.022;7.012;2023-05-13T01:01:20;14.98;;;8.27;;
54259;SDS011;40172;53.022;7.012;2023-05-13T01:04:07;13.25;;;8.52;;
54259;SDS011;40172;53.022;7.012;2023-05-13T01:12:24;18.10;;;9.07;;
54259;SDS011;40172;53.022;7.012;2023-05-13T01:15:03;14.07;;;8.82;;
54259;SDS011;40172;53.022;7.012;2023-05-13T01:20:14;13.15;;;8.90;;
54259;SDS011;40172;53.022;7.012;2023-05-13T01:22:44;13.25;;;9.07;;
54259;SDS011;40172;53.022;7.012;2023-05-13T01:25:09;14.90;;;8.98;;
54259;SDS011;40172;53.022;7.012;2023-05-13T01:27:35;12.32;;;8.70;;
54259;SDS011;40172;53.022;7.012;2023-05-13T01:30:01;13.90;;;8.98;;
54259;SDS011;40172;53.022;7.012;2023-05-13T01:32:27;14.95;;;9.27;;
54259;SDS011;40172;53.022;7.012;2023-05-13T01:34:53;14.38;;;9.18;;
54259;SDS011;40172;53.022;7.012;2023-05-13T01:37:20;12.98;;;9.00;;
54259;SDS011;40172;53.022;7.012;2023-05-13T01:39:46;15.55;;;9.88;;
54259;SDS011;40172;53.022;7.012;2023-05-13T01:42:12;13.32;;;9.20;;
54259;SDS011;40172;53.022;7.012;2023-05-13T01:44:37;15.25;;;9.10;;
54259;SDS011;40172;53.022;7.012;2023-05-13T01:47:03;10.77;;;9.10;;
54259;SDS011;40172;53.022;7.012;2023-05-13T01:49:29;15.60;;;8.82;;
54259;SDS011;40172;53.022;7.012;2023-05-13T01:51:54;13.20;;;9.43;;
54259;SDS011;40172;53.022;7.012;2023-05-13T01:54:20;13.05;;;9.32;;
54259;SDS011;40172;53.022;7.012;2023-05-13T01:56:46;10.95;;;9.00;;
54259;SDS011;40172;53.022;7.012;2023-05-13T01:59:11;15.20;;;9.63;;
54259;SDS011;40172;53.022;7.012;2023-05-13T02:01:37;15.15;;;9.45;;
54259;SDS011;40172;53.022;7.012;2023-05-13T02:04:04;15.75;;;9.45;;
54259;SDS011;40172;53.022;7.012;2023-05-13T02:06:30;14.38;;;9.70;;
54259;SDS011;40172;53.022;7.012;2023-05-13T02:08:56;16.38;;;9.50;;
54259;SDS011;40172;53.022;7.012;2023-05-13T02:11:21;15.95;;;9.32;;
54259;SDS011;40172;53.022;7.012;2023-05-13T02:13:47;13.55;;;10.02;;
54259;SDS011;40172;53.022;7.012;2023-05-13T02:16:16;15.63;;;10.00;;
54259;SDS011;40172;53.022;7.012;2023-05-13T02:18:42;16.42;;;9.85;;
54259;SDS011;40172;53.022;7.012;2023-05-13T02:21:07;16.15;;;10.15;;
54259;SDS011;40172;53.022;7.012;2023-05-13T02:23:33;16.67;;;9.90;;
54259;SDS011;40172;53.022;7.012;2023-05-13T02:25:59;13.98;;;10.38;;
54259;SDS011;40172;53.022;7.012;2023-05-13T02:28:24;13.63;;;9.45;;
54259;SDS011;40172;53.022;7.012;2023-05-13T02:30:51;15.10;;;9.85;;
54259;SDS011;40172;53.022;7.012;2023-05-13T02:33:16;17.38;;;10.27;;
54259;SDS011;40172;53.022;7.012;2023-05-13T02:35:42;14.60;;;10.68;;
54259;SDS011;40172;53.022;7.012;2023-05-13T02:38:08;14.00;;;10.23;;
54259;SDS011;40172;53.022;7.012;2023-05-13T02:40:34;15.27;;;11.35;;
54259;SDS011;40172;53.022;7.012;2023-05-13T02:43:00;12.48;;;11.02;;
54259;SDS011;40172;53.022;7.012;2023-05-13T02:45:25;15.20;;;11.15;;
54259;SDS011;40172;53.022;7.012;2023-05-13T02:47:51;12.85;;;10.93;;
54259;SDS011;40172;53.022;7.012;2023-05-13T02:50:17;15.38;;;11.18;;
54259;SDS011;40172;53.022;7.012;2023-05-13T02:52:42;12.98;;;11.00;;
54259;SDS011;40172;53.022;7.012;2023-05-13T02:55:08;18.95;;;11.55;;
54259;SDS011;40172;53.022;7.012;2023-05-13T02:57:34;15.48;;;11.77;;
54259;SDS011;40172;53.022;7.012;2023-05-13T03:00:02;15.63;;;11.60;;
54259;SDS011;40172;53.022;7.012;2023-05-13T03:02:28;18.33;;;11.65;;
54259;SDS011;40172;53.022;7.012;2023-05-13T03:04:54;18.75;;;12.43;;
54259;SDS011;40172;53.022;7.012;2023-05-13T03:07:20;19.73;;;12.43;;
54259;SDS011;40172;53.022;7.012;2023-05-13T03:09:46;18.60;;;12.32;;
54259;SDS011;40172;53.022;7.012;2023-05-13T03:12:12;14.63;;;12.52;;
54259;SDS011;40172;53.022;7.012;2023-05-13T03:14:37;20.80;;;13.10;;
54259;SDS011;40172;53.022;7.012;2023-05-13T03:17:04;21.95;;;13.60;;
54259;SDS011;40172;53.022;7.012;2023-05-13T03:19:30;18.13;;;14.50;;
54259;SDS011;40172;53.022;7.012;2023-05-13T03:21:58;24.40;;;14.77;;
54259;SDS011;40172;53.022;7.012;2023-05-13T03:24:23;24.42;;;15.80;;
54259;SDS011;40172;53.022;7.012;2023-05-13T03:26:49;21.25;;;17.05;;
54259;SDS011;40172;53.022;7.012;2023-05-13T03:29:15;22.60;;;17.80;;
54259;SDS011;40172;53.022;7.012;2023-05-13T03:31:40;23.30;;;17.98;;
54259;SDS011;40172;53.022;7.012;2023-05-13T03:34:06;21.48;;;18.15;;
54259;SDS011;40172;53.022;7.012;2023-05-13T03:36:31;22.20;;;18.70;;
54259;SDS011;40172;53.022;7.012;2023-05-13T03:38:57;28.45;;;20.45;;
54259;SDS011;40172;53.022;7.012;2023-05-13T03:41:22;26.17;;;20.88;;
54259;SDS011;40172;53.022;7.012;2023-05-13T03:43:48;26.33;;;21.42;;
54259;SDS011;40172;53.022;7.012;2023-05-13T03:46:14;25.63;;;22.90;;
54259;SDS011;40172;53.022;7.012;2023-05-13T03:48:40;27.23;;;23.40;;
54259;SDS011;40172;53.022;7.012;2023-05-13T03:51:05;26.58;;;23.42;;
54259;SDS011;40172;53.022;7.012;2023-05-13T03:53:31;26.80;;;23.70;;
54259;SDS011;40172;53.022;7.012;2023-05-13T03:55:57;31.83;;;24.48;;
54259;SDS011;40172;53.022;7.012;2023-05-13T03:58:22;27.05;;;23.85;;
54259;SDS011;40172;53.022;7.012;2023-05-13T04:00:48;29.65;;;23.63;;
54259;SDS011;40172;53.022;7.012;2023-05-13T04:03:14;28.48;;;23.15;;
54259;SDS011;40172;53.022;7.012;2023-05-13T04:05:40;26.27;;;22.45;;
54259;SDS011;40172;53.022;7.012;2023-05-13T04:08:06;24.42;;;21.75;;
54259;SDS011;40172;53.022;7.012;2023-05-13T04:10:32;26.23;;;20.65;;
54259;SDS011;40172;53.022;7.012;2023-05-13T04:12:57;27.02;;;21.15;;
54259;SDS011;40172;53.022;7.012;2023-05-13T04:15:23;25.17;;;20.05;;
54259;SDS011;40172;53.022;7.012;2023-05-13T04:17:50;26.10;;;20.23;;
54259;SDS011;40172;53.022;7.012;2023-05-13T04:20:16;30.70;;;22.08;;
54259;SDS011;40172;53.022;7.012;2023-05-13T04:22:42;25.27;;;19.85;;
54259;SDS011;40172;53.022;7.012;2023-05-13T04:25:07;24.30;;;20.20;;
54259;SDS011;40172;53.022;7.012;2023-05-13T04:27:33;24.25;;;20.42;;
54259;SDS011;40172;53.022;7.012;2023-05-13T04:29:59;23.77;;;19.50;;
54259;SDS011;40172;53.022;7.012;2023-05-13T04:32:25;28.15;;;19.83;;
54259;SDS011;40172;53.022;7.012;2023-05-13T04:34:51;22.17;;;19.05;;
54259;SDS011;40172;53.022;7.012;2023-05-13T04:37:17;22.25;;;18.58;;
54259;SDS011;40172;53.022;7.012;2023-05-13T04:39:46;23.15;;;19.27;;
54259;SDS011;40172;53.022;7.012;2023-05-13T04:42:12;26.50;;;19.95;;
54259;SDS011;40172;53.022;7.012;2023-05-13T04:44:39;24.50;;;18.98;;
54259;SDS011;40172;53.022;7.012;2023-05-13T04:47:04;29.02;;;19.00;;
54259;SDS011;40172;53.022;7.012;2023-05-13T04:49:30;20.83;;;18.05;;
54259;SDS011;40172;53.022;7.012;2023-05-13T04:51:56;23.77;;;17.83;;
54259;SDS011;40172;53.022;7.012;2023-05-13T04:54:22;20.40;;;18.23;;
54259;SDS011;40172;53.022;7.012;2023-05-13T04:56:47;23.73;;;17.80;;
54259;SDS011;40172;53.022;7.012;2023-05-13T04:59:13;27.20;;;18.23;;
54259;SDS011;40172;53.022;7.012;2023-05-13T05:01:39;21.98;;;17.50;;
54259;SDS011;40172;53.022;7.012;2023-05-13T05:04:04;22.45;;;17.02;;
54259;SDS011;40172;53.022;7.012;2023-05-13T05:06:30;24.08;;;17.00;;
54259;SDS011;40172;53.022;7.012;2023-05-13T05:08:58;23.55;;;17.60;;
54259;SDS011;40172;53.022;7.012;2023-05-13T05:11:24;19.60;;;17.40;;
54259;SDS011;40172;53.022;7.012;2023-05-13T05:13:50;20.08;;;16.60;;
54259;SDS011;40172;53.022;7.012;2023-05-13T05:16:16;22.55;;;16.65;;
54259;SDS011;40172;53.022;7.012;2023-05-13T05:18:41;23.60;;;16.50;;
54259;SDS011;40172;53.022;7.012;2023-05-13T05:21:07;24.10;;;16.55;;
54259;SDS011;40172;53.022;7.012;2023-05-13T05:23:33;18.88;;;16.63;;
54259;SDS011;40172;53.022;7.012;2023-05-13T05:25:59;19.92;;;15.57;;
54259;SDS011;40172;53.022;7.012;2023-05-13T05:28:25;19.38;;;15.38;;
54259;SDS011;40172;53.022;7.012;2023-05-13T05:30:51;20.75;;;14.88;;
54259;SDS011;40172;53.022;7.012;2023-05-13T05:33:17;21.27;;;14.68;;
54259;SDS011;40172;53.022;7.012;2023-05-13T05:35:44;18.02;;;14.10;;
54259;SDS011;40172;53.022;7.012;2023-05-13T05:38:09;17.38;;;14.35;;
54259;SDS011;40172;53.022;7.012;2023-05-13T05:40:39;19.58;;;15.20;;
54259;SDS011;40172;53.022;7.012;2023-05-13T05:43:06;18.40;;;14.00;;
54259;SDS011;40172;53.022;7.012;2023-05-13T05:45:36;17.40;;;13.48;;
54259;SDS011;40172;53.022;7.012;2023-05-13T05:48:02;23.08;;;14.05;;
54259;SDS011;40172;53.022;7.012;2023-05-13T05:50:28;18.33;;;13.90;;
54259;SDS011;40172;53.022;7.012;2023-05-13T05:52:55;18.45;;;13.02;;
54259;SDS011;40172;53.022;7.012;2023-05-13T05:55:20;20.73;;;13.50;;
54259;SDS011;40172;53.022;7.012;2023-05-13T05:57:46;18.00;;;13.88;;
54259;SDS011;40172;53.022;7.012;2023-05-13T06:00:12;16.70;;;13.40;;
54259;SDS011;40172;53.022;7.012;2023-05-13T06:02:38;20.05;;;13.05;;
54259;SDS011;40172;53.022;7.012;2023-05-13T06:05:04;19.80;;;13.27;;
54259;SDS011;40172;53.022;7.012;2023-05-13T06:07:30;17.05;;;13.10;;
54259;SDS011;40172;53.022;7.012;2023-05-13T06:09:56;15.30;;;12.70;;
54259;SDS011;40172;53.022;7.012;2023-05-13T06:12:21;16.20;;;12.75;;
54259;SDS011;40172;53.022;7.012;2023-05-13T06:14:47;16.52;;;12.38;;
54259;SDS011;40172;53.022;7.012;2023-05-13T06:17:13;15.90;;;13.05;;
54259;SDS011;40172;53.022;7.012;2023-05-13T06:19:39;14.52;;;11.85;;
54259;SDS011;40172;53.022;7.012;2023-05-13T06:22:08;17.17;;;12.63;;
54259;SDS011;40172;53.022;7.012;2023-05-13T06:24:37;18.65;;;12.48;;
54259;SDS011;40172;53.022;7.012;2023-05-13T06:27:03;17.02;;;12.85;;
54259;SDS011;40172;53.022;7.012;2023-05-13T06:29:29;17.48;;;12.85;;
54259;SDS011;40172;53.022;7.012;2023-05-13T06:31:55;17.48;;;13.02;;
54259;SDS011;40172;53.022;7.012;2023-05-13T06:34:21;17.17;;;12.05;;
54259;SDS011;40172;53.022;7.012;2023-05-13T06:36:46;14.90;;;11.70;;
54259;SDS011;40172;53.022;7.012;2023-05-13T06:39:12;16.98;;;12.15;;
54259;SDS011;40172;53.022;7.012;2023-05-13T06:41:38;17.83;;;12.15;;
54259;SDS011;40172;53.022;7.012;2023-05-13T06:44:04;18.63;;;11.60;;
54259;SDS011;40172;53.022;7.012;2023-05-13T06:46:30;17.90;;;12.77;;
54259;SDS011;40172;53.022;7.012;2023-05-13T06:48:56;16.88;;;11.55;;
54259;SDS011;40172;53.022;7.012;2023-05-13T06:51:23;20.45;;;12.02;;
54259;SDS011;40172;53.022;7.012;2023-05-13T06:53:51;16.17;;;11.98;;
54259;SDS011;40172;53.022;7.012;2023-05-13T06:56:17;18.98;;;11.88;;
54259;SDS011;40172;53.022;7.012;2023-05-13T06:58:43;17.35;;;12.02;;
54259;SDS011;40172;53.022;7.012;2023-05-13T07:01:09;18.75;;;10.35;;
54259;SDS011;40172;53.022;7.012;2023-05-13T07:03:34;14.63;;;10.25;;
54259;SDS011;40172;53.022;7.012;2023-05-13T07:06:01;13.75;;;10.23;;
54259;SDS011;40172;53.022;7.012;2023-05-13T07:08:28;17.02;;;10.68;;
54259;SDS011;40172;53.022;7.012;2023-05-13T07:10:54;13.90;;;9.40;;
54259;SDS011;40172;53.022;7.012;2023-05-13T07:13:19;15.35;;;9.55;;
54259;SDS011;40172;53.022;7.012;2023-05-13T07:15:45;12.02;;;9.70;;
54259;SDS011;40172;53.022;7.012;2023-05-13T07:18:11;11.30;;;9.48;;
54259;SDS011;40172;53.022;7.012;2023-05-13T07:20:37;13.45;;;9.85;;
54259;SDS011;40172;53.022;7.012;2023-05-13T07:23:02;13.35;;;9.10;;
54259;SDS011;40172;53.022;7.012;2023-05-13T07:25:28;11.43;;;9.48;;
54259;SDS011;40172;53.022;7.012;2023-05-13T07:27:54;13.43;;;9.32;;
54259;SDS011;40172;53.022;7.012;2023-05-13T07:30:19;17.08;;;10.82;;
54259;SDS011;40172;53.022;7.012;2023-05-13T07:32:45;15.73;;;10.32;;
54259;SDS011;40172;53.022;7.012;2023-05-13T07:35:11;13.25;;;9.30;;
54259;SDS011;40172;53.022;7.012;2023-05-13T07:37:36;14.73;;;9.82;;
54259;SDS011;40172;53.022;7.012;2023-05-13T07:40:03;15.73;;;9.50;;
54259;SDS011;40172;53.022;7.012;2023-05-13T07:42:29;13.45;;;9.55;;
54259;SDS011;40172;53.022;7.012;2023-05-13T07:44:55;12.75;;;9.27;;
54259;SDS011;40172;53.022;7.012;2023-05-13T07:47:21;18.58;;;9.10;;
54259;SDS011;40172;53.022;7.012;2023-05-13T07:49:47;14.43;;;10.15;;
54259;SDS011;40172;53.022;7.012;2023-05-13T07:52:13;15.40;;;9.68;;
54259;SDS011;40172;53.022;7.012;2023-05-13T07:54:39;13.35;;;9.85;;
54259;SDS011;40172;53.022;7.012;2023-05-13T07:57:04;16.13;;;9.85;;
54259;SDS011;40172;53.022;7.012;2023-05-13T07:59:30;14.75;;;9.00;;
54259;SDS011;40172;53.022;7.012;2023-05-13T08:01:56;14.27;;;9.88;;
54259;SDS011;40172;53.022;7.012;2023-05-13T08:04:21;15.60;;;9.57;;
54259;SDS011;40172;53.022;7.012;2023-05-13T08:06:47;14.30;;;9.50;;
54259;SDS011;40172;53.022;7.012;2023-05-13T08:09:12;16.35;;;9.23;;
54259;SDS011;40172;53.022;7.012;2023-05-13T08:11:38;14.93;;;9.45;;
54259;SDS011;40172;53.022;7.012;2023-05-13T08:14:04;11.48;;;8.38;;
54259;SDS011;40172;53.022;7.012;2023-05-13T08:16:30;13.05;;;9.00;;
54259;SDS011;40172;53.022;7.012;2023-05-13T08:18:58;15.50;;;9.70;;
54259;SDS011;40172;53.022;7.012;2023-05-13T08:21:23;12.95;;;8.30;;
54259;SDS011;40172;53.022;7.012;2023-05-13T08:23:49;12.10;;;8.15;;
54259;SDS011;40172;53.022;7.012;2023-05-13T08:26:16;20.10;;;8.40;;
54259;SDS011;40172;53.022;7.012;2023-05-13T08:28:41;19.10;;;8.85;;
54259;SDS011;40172;53.022;7.012;2023-05-13T08:31:07;16.27;;;8.20;;
54259;SDS011;40172;53.022;7.012;2023-05-13T08:33:32;12.27;;;7.82;;
54259;SDS011;40172;53.022;7.012;2023-05-13T08:35:58;13.60;;;8.15;;
54259;SDS011;40172;53.022;7.012;2023-05-13T08:38:24;19.83;;;8.45;;
54259;SDS011;40172;53.022;7.012;2023-05-13T08:40:50;11.18;;;7.40;;
54259;SDS011;40172;53.022;7.012;2023-05-13T08:43:16;13.00;;;7.68;;
54259;SDS011;40172;53.022;7.012;2023-05-13T08:45:46;15.00;;;7.80;;
54259;SDS011;40172;53.022;7.012;2023-05-13T08:48:14;11.93;;;8.32;;
54259;SDS011;40172;53.022;7.012;2023-05-13T08:50:42;14.45;;;8.75;;
54259;SDS011;40172;53.022;7.012;2023-05-13T08:53:09;13.02;;;7.45;;
54259;SDS011;40172;53.022;7.012;2023-05-13T08:55:36;13.30;;;7.55;;
54259;SDS011;40172;53.022;7.012;2023-05-13T08:58:03;15.90;;;8.02;;
54259;SDS011;40172;53.022;7.012;2023-05-13T09:00:29;12.63;;;8.05;;
54259;SDS011;40172;53.022;7.012;2023-05-13T09:02:56;12.30;;;7.78;;
54259;SDS011;40172;53.022;7.012;2023-05-13T09:05:22;12.82;;;7.90;;
54259;SDS011;40172;53.022;7.012;2023-05-13T09:07:48;16.85;;;8.73;;
54259;SDS011;40172;53.022;7.012;2023-05-13T09:10:14;11.35;;;7.07;;
54259;SDS011;40172;53.022;7.012;2023-05-13T09:15:09;10.82;;;7.07;;
54259;SDS011;40172;53.022;7.012;2023-05-13T09:17:58;9.52;;;7.13;;
54259;SDS011;40172;53.022;7.012;2023-05-13T09:20:27;11.90;;;5.32;;
54259;SDS011;40172;53.022;7.012;2023-05-13T09:22:55;15.30;;;6.72;;
54259;SDS011;40172;53.022;7.012;2023-05-13T09:25:22;12.13;;;6.18;;
54259;SDS011;40172;53.022;7.012;2023-05-13T09:27:52;12.73;;;7.30;;
54259;SDS011;40172;53.022;7.012;2023-05-13T09:30:21;12.35;;;6.30;;
54259;SDS011;40172;53.022;7.012;2023-05-13T09:35:34;10.25;;;6.20;;
54259;SDS011;40172;53.022;7.012;2023-05-13T09:38:00;11.73;;;6.22;;
54259;SDS011;40172;53.022;7.012;2023-05-13T09:40:37;10.95;;;4.88;;
54259;SDS011;40172;53.022;7.012;2023-05-13T09:43:03;12.27;;;5.95;;
54259;SDS011;40172;53.022;7.012;2023-05-13T09:45:31;9.77;;;5.32;;
54259;SDS011;40172;53.022;7.012;2023-05-13T09:47:57;11.45;;;5.80;;
54259;SDS011;40172;53.022;7.012;2023-05-13T09:50:22;11.40;;;5.28;;
54259;SDS011;40172;53.022;7.012;2023-05-13T09:52:48;11.43;;;5.22;;
54259;SDS011;40172;53.022;7.012;2023-05-13T09:55:14;9.23;;;4.68;;
54259;SDS011;40172;53.022;7.012;2023-05-13T09:57:39;13.45;;;5.25;;
54259;SDS011;40172;53.022;7.012;2023-05-13T10:00:06;12.32;;;5.55;;
54259;SDS011;40172;53.022;7.012;2023-05-13T10:02:33;9.23;;;4.30;;
54259;SDS011;40172;53.022;7.012;2023-05-13T10:04:59;9.07;;;4.53;;
54259;SDS011;40172;53.022;7.012;2023-05-13T10:07:26;10.73;;;4.00;;
54259;SDS011;40172;53.022;7.012;2023-05-13T10:09:52;14.98;;;4.50;;
54259;SDS011;40172;53.022;7.012;2023-05-13T10:12:26;10.30;;;4.28;;
54259;SDS011;40172;53.022;7.012;2023-05-13T10:14:54;8.77;;;4.22;;
54259;SDS011;40172;53.022;7.012;2023-05-13T10:17:20;7.85;;;4.10;;
54259;SDS011;40172;53.022;7.012;2023-05-13T10:19:47;10.40;;;3.85;;
54259;SDS011;40172;53.022;7.012;2023-05-13T10:22:14;9.85;;;3.65;;
54259;SDS011;40172;53.022;7.012;2023-05-13T10:24:40;10.60;;;3.80;;
54259;SDS011;40172;53.022;7.012;2023-05-13T10:27:06;7.78;;;4.05;;
54259;SDS011;40172;53.022;7.012;2023-05-13T10:29:36;8.65;;;3.50;;
54259;SDS011;40172;53.022;7.012;2023-05-13T10:32:02;6.05;;;3.53;;
54259;SDS011;40172;53.022;7.012;2023-05-13T10:34:29;10.10;;;3.20;;
54259;SDS011;40172;53.022;7.012;2023-05-13T10:42:38;8.50;;;3.05;;
54259;SDS011;40172;53.022;7.012;2023-05-13T10:45:06;10.63;;;3.72;;
54259;SDS011;40172;53.022;7.012;2023-05-13T10:47:33;11.88;;;3.40;;
54259;SDS011;40172;53.022;7.012;2023-05-13T10:50:03;9.00;;;3.28;;
54259;SDS011;40172;53.022;7.012;2023-05-13T10:52:48;6.18;;;3.20;;
54259;SDS011;40172;53.022;7.012;2023-05-13T10:55:18;8.35;;;3.55;;
54259;SDS011;40172;53.022;7.012;2023-05-13T11:00:37;8.93;;;3.50;;
54259;SDS011;40172;53.022;7.012;2023-05-13T11:03:11;8.73;;;3.13;;
54259;SDS011;40172;53.022;7.012;2023-05-13T11:05:37;9.50;;;3.20;;
54259;SDS011;40172;53.022;7.012;2023-05-13T11:08:11;8.80;;;3.30;;
54259;SDS011;40172;53.022;7.012;2023-05-13T11:10:56;8.30;;;2.97;;
54259;SDS011;40172;53.022;7.012;2023-05-13T11:13:22;11.05;;;3.38;;
54259;SDS011;40172;53.022;7.012;2023-05-13T11:15:59;18.15;;;3.17;;
54259;SDS011;40172;53.022;7.012;2023-05-13T11:18:28;8.80;;;3.20;;
54259;SDS011;40172;53.022;7.012;2023-05-13T11:20:55;10.63;;;3.10;;
54259;SDS011;40172;53.022;7.012;2023-05-13T11:23:26;7.22;;;2.83;;
54259;SDS011;40172;53.022;7.012;2023-05-13T11:28:54;5.68;;;2.83;;
54259;SDS011;40172;53.022;7.012;2023-05-13T11:31:20;10.60;;;2.53;;
54259;SDS011;40172;53.022;7.012;2023-05-13T11:36:37;2.80;;;2.10;;
54259;SDS011;40172;53.022;7.012;2023-05-13T11:39:11;7.80;;;2.40;;
54259;SDS011;40172;53.022;7.012;2023-05-13T11:41:45;7.85;;;2.47;;
54259;SDS011;40172;53.022;7.012;2023-05-13T11:44:13;5.18;;;2.17;;
54259;SDS011;40172;53.022;7.012;2023-05-13T11:46:54;7.45;;;2.25;;
54259;SDS011;40172;53.022;7.012;2023-05-13T11:52:06;5.28;;;2.60;;
54259;SDS011;40172;53.022;7.012;2023-05-13T11:54:42;10.88;;;2.50;;
54259;SDS011;40172;53.022;7.012;2023-05-13T11:57:28;5.10;;;2.40;;
54259;SDS011;40172;53.022;7.012;2023-05-13T12:02:25;7.97;;;2.33;;
54259;SDS011;40172;53.022;7.012;2023-05-13T12:04:53;7.93;;;2.47;;
54259;SDS011;40172;53.022;7.012;2023-05-13T12:07:23;5.63;;;2.35;;
54259;SDS011;40172;53.022;7.012;2023-05-13T12:09:50;7.20;;;2.88;;
54259;SDS011;40172;53.022;7.012;2023-05-13T12:12:17;11.35;;;2.45;;
54259;SDS011;40172;53.022;7.012;2023-05-13T12:14:44;5.05;;;2.40;;
54259;SDS011;40172;53.022;7.012;2023-05-13T12:17:14;6.80;;;2.28;;
54259;SDS011;40172;53.022;7.012;2023-05-13T12:28:11;8.73;;;2.42;;
54259;SDS011;40172;53.022;7.012;2023-05-13T12:30:57;9.60;;;2.90;;
54259;SDS011;40172;53.022;7.012;2023-05-13T12:33:24;7.82;;;2.15;;
54259;SDS011;40172;53.022;7.012;2023-05-13T12:36:13;7.63;;;2.70;;
54259;SDS011;40172;53.022;7.012;2023-05-13T12:41:32;6.15;;;2.20;;
54259;SDS011;40172;53.022;7.012;2023-05-13T12:44:03;5.32;;;2.50;;
54259;SDS011;40172;53.022;7.012;2023-05-13T12:46:33;4.63;;;2.40;;
54259;SDS011;40172;53.022;7.012;2023-05-13T12:48:59;9.82;;;2.67;;
54259;SDS011;40172;53.022;7.012;2023-05-13T12:51:27;8.45;;;2.33;;
54259;SDS011;40172;53.022;7.012;2023-05-13T12:53:54;12.80;;;3.00;;
54259;SDS011;40172;53.022;7.012;2023-05-13T12:56:24;6.85;;;2.10;;
54259;SDS011;40172;53.022;7.012;2023-05-13T12:58:50;5.93;;;2.17;;
54259;SDS011;40172;53.022;7.012;2023-05-13T13:01:18;8.80;;;2.13;;
54259;SDS011;40172;53.022;7.012;2023-05-13T13:03:44;4.20;;;2.08;;
54259;SDS011;40172;53.022;7.012;2023-05-13T13:06:10;6.97;;;2.50;;
54259;SDS011;40172;53.022;7.012;2023-05-13T13:08:36;10.98;;;2.78;;
54259;SDS011;40172;53.022;7.012;2023-05-13T13:11:02;8.95;;;2.53;;
54259;SDS011;40172;53.022;7.012;2023-05-13T13:13:28;9.75;;;2.65;;
54259;SDS011;40172;53.022;7.012;2023-05-13T13:15:54;8.23;;;2.13;;
54259;SDS011;40172;53.022;7.012;2023-05-13T13:18:20;9.88;;;2.47;;
54259;SDS011;40172;53.022;7.012;2023-05-13T13:20:45;8.45;;;2.90;;
54259;SDS011;40172;53.022;7.012;2023-05-13T13:23:11;16.65;;;2.47;;
54259;SDS011;40172;53.022;7.012;2023-05-13T13:25:37;7.03;;;2.67;;
54259;SDS011;40172;53.022;7.012;2023-05-13T13:28:02;4.80;;;2.70;;
54259;SDS011;40172;53.022;7.012;2023-05-13T13:30:28;10.32;;;2.70;;
54259;SDS011;40172;53.022;7.012;2023-05-13T13:32:54;9.27;;;2.50;;
54259;SDS011;40172;53.022;7.012;2023-05-13T13:35:20;8.43;;;2.25;;
54259;SDS011;40172;53.022;7.012;2023-05-13T13:37:45;10.45;;;2.40;;
54259;SDS011;40172;53.022;7.012;2023-05-13T13:40:11;11.85;;;2.67;;
54259;SDS011;40172;53.022;7.012;2023-05-13T13:42:37;12.30;;;2.33;;
54259;SDS011;40172;53.022;7.012;2023-05-13T13:45:03;5.88;;;2.20;;
54259;SDS011;40172;53.022;7.012;2023-05-13T13:47:29;4.60;;;2.15;;
54259;SDS011;40172;53.022;7.012;2023-05-13T13:49:54;4.05;;;2.05;;
54259;SDS011;40172;53.022;7.012;2023-05-13T13:52:20;10.18;;;2.63;;
54259;SDS011;40172;53.022;7.012;2023-05-13T13:54:46;9.20;;;2.80;;
54259;SDS011;40172;53.022;7.012;2023-05-13T13:57:13;8.77;;;2.55;;
54259;SDS011;40172;53.022;7.012;2023-05-13T13:59:39;8.18;;;2.20;;
54259;SDS011;40172;53.022;7.012;2023-05-13T14:02:05;7.28;;;2.22;;
54259;SDS011;40172;53.022;7.012;2023-05-13T14:04:30;9.15;;;2.50;;
54259;SDS011;40172;53.022;7.012;2023-05-13T14:06:57;5.60;;;2.38;;
54259;SDS011;40172;53.022;7.012;2023-05-13T14:09:23;4.32;;;2.30;;
54259;SDS011;40172;53.022;7.012;2023-05-13T14:11:49;4.55;;;2.60;;
54259;SDS011;40172;53.022;7.012;2023-05-13T14:14:15;4.75;;;2.42;;
54259;SDS011;40172;53.022;7.012;2023-05-13T14:16:40;5.47;;;2.47;;
54259;SDS011;40172;53.022;7.012;2023-05-13T14:19:06;5.32;;;2.40;;
54259;SDS011;40172;53.022;7.012;2023-05-13T14:21:31;8.25;;;2.47;;
54259;SDS011;40172;53.022;7.012;2023-05-13T14:23:57;8.10;;;2.30;;
54259;SDS011;40172;53.022;7.012;2023-05-13T14:26:23;6.55;;;2.28;;
54259;SDS011;40172;53.022;7.012;2023-05-13T14:28:48;9.20;;;2.63;;
54259;SDS011;40172;53.022;7.012;2023-05-13T14:31:14;9.65;;;2.80;;
54259;SDS011;40172;53.022;7.012;2023-05-13T14:33:40;9.63;;;2.90;;
54259;SDS011;40172;53.022;7.012;2023-05-13T14:36:05;13.40;;;2.65;;
54259;SDS011;40172;53.022;7.012;2023-05-13T14:38:33;7.85;;;2.50;;
54259;SDS011;40172;53.022;7.012;2023-05-13T14:40:59;10.43;;;3.13;;
54259;SDS011;40172;53.022;7.012;2023-05-13T14:43:24;6.13;;;3.00;;
54259;SDS011;40172;53.022;7.012;2023-05-13T14:45:50;5.95;;;2.70;;
54259;SDS011;40172;53.022;7.012;2023-05-13T14:48:17;10.07;;;3.00;;
54259;SDS011;40172;53.022;7.012;2023-05-13T14:50:43;11.05;;;3.00;;
54259;SDS011;40172;53.022;7.012;2023-05-13T14:53:09;9.80;;;3.00;;
54259;SDS011;40172;53.022;7.012;2023-05-13T14:55:35;16.75;;;3.13;;
54259;SDS011;40172;53.022;7.012;2023-05-13T14:58:00;7.57;;;3.17;;
54259;SDS011;40172;53.022;7.012;2023-05-13T15:00:27;8.15;;;3.30;;
54259;SDS011;40172;53.022;7.012;2023-05-13T15:02:53;7.35;;;3.00;;
54259;SDS011;40172;53.022;7.012;2023-05-13T15:05:19;10.25;;;3.50;;
54259;SDS011;40172;53.022;7.012;2023-05-13T15:07:44;9.23;;;2.80;;
54259;SDS011;40172;53.022;7.012;2023-05-13T15:10:10;13.05;;;2.70;;
54259;SDS011;40172;53.022;7.012;2023-05-13T15:12:35;9.02;;;2.83;;
54259;SDS011;40172;53.022;7.012;2023-05-13T15:15:01;6.85;;;3.30;;